sensor_id;sensor_type;location;lat;lon;timestamp;P1;durP1;ratioP1;P2;durP2;ratioP2
2934;SDS011;2462;51.456;7.248;2023-06-14T00:01:45;4.80;;;4.33;;
2934;SDS011;2462;51.456;7.248;2023-06-14T00:04:12;5.27;;;4.80;;
2934;SDS011;2462;51.456;7.248;2023-06-14T00:06:38;4.47;;;4.00;;
2934;SDS011;2462;51.456;7.248;2023-06-14T00:09:04;4.20;;;3.90;;
2934;SDS011;2462;51.456;7.248;2023-06-14T00:11:33;5.23;;;4.57;;
2934;SDS011;2462;51.456;7.248;2023-06-14T00:13:58;4.70;;;4.30;;
2934;SDS011;2462;51.456;7.248;2023-06-14T00:16:24;4.57;;;4.17;;
2934;SDS011;2462;51.456;7.248;2023-06-14T00:18:49;4.77;;;4.23;;
2934;SDS011;2462;51.456;7.248;2023-06-14T00:21:16;4.50;;;4.10;;
2934;SDS011;2462;51.456;7.248;2023-06-14T00:23:42;4.93;;;4.53;;
2934;SDS011;2462;51.456;7.248;2023-06-14T00:26:08;6.27;;;4.53;;
2934;SDS011;2462;51.456;7.248;2023-06-14T00:28:34;4.30;;;3.90;;
2934;SDS011;2462;51.456;7.248;2023-06-14T00:30:59;4.80;;;4.30;;
2934;SDS011;2462;51.456;7.248;2023-06-14T00:33:25;4.60;;;4.13;;
2934;SDS011;2462;51.456;7.248;2023-06-14T00:35:50;5.10;;;4.60;;
2934;SDS011;2462;51.456;7.248;2023-06-14T00:38:18;4.53;;;4.10;;
2934;SDS011;2462;51.456;7.248;2023-06-14T00:40:44;4.63;;;4.23;;
2934;SDS011;2462;51.456;7.248;2023-06-14T00:43:10;4.40;;;4.00;;
2934;SDS011;2462;51.456;7.248;2023-06-14T00:45:35;4.30;;;4.00;;
2934;SDS011;2462;51.456;7.248;2023-06-14T00:48:01;4.93;;;4.57;;
2934;SDS011;2462;51.456;7.248;2023-06-14T00:50:27;5.23;;;4.50;;
2934;SDS011;2462;51.456;7.248;2023-06-14T00:52:56;4.97;;;4.50;;
2934;SDS011;2462;51.456;7.248;2023-06-14T00:55:22;4.70;;;4.20;;
2934;SDS011;2462;51.456;7.248;2023-06-14T00:57:48;4.87;;;4.37;;
2934;SDS011;2462;51.456;7.248;2023-06-14T01:00:14;5.33;;;4.90;;
2934;SDS011;2462;51.456;7.248;2023-06-14T01:02:40;5.67;;;5.17;;
2934;SDS011;2462;51.456;7.248;2023-06-14T01:05:06;5.03;;;4.63;;
2934;SDS011;2462;51.456;7.248;2023-06-14T01:12:58;4.27;;;3.87;;
2934;SDS011;2462;51.456;7.248;2023-06-14T01:15:33;5.40;;;4.70;;
2934;SDS011;2462;51.456;7.248;2023-06-14T01:18:00;5.00;;;4.60;;
2934;SDS011;2462;51.456;7.248;2023-06-14T01:20:30;5.00;;;4.60;;
2934;SDS011;2462;51.456;7.248;2023-06-14T01:22:57;5.10;;;4.60;;
2934;SDS011;2462;51.456;7.248;2023-06-14T01:25:23;4.87;;;4.47;;
2934;SDS011;2462;51.456;7.248;2023-06-14T01:27:51;4.10;;;3.80;;
2934;SDS011;2462;51.456;7.248;2023-06-14T01:30:20;5.40;;;4.90;;
2934;SDS011;2462;51.456;7.248;2023-06-14T01:32:47;3.87;;;3.57;;
2934;SDS011;2462;51.456;7.248;2023-06-14T01:35:15;4.90;;;4.50;;
2934;SDS011;2462;51.456;7.248;2023-06-14T01:37:41;4.43;;;4.13;;
2934;SDS011;2462;51.456;7.248;2023-06-14T01:40:09;4.23;;;3.90;;
2934;SDS011;2462;51.456;7.248;2023-06-14T01:42:36;5.10;;;4.60;;
2934;SDS011;2462;51.456;7.248;2023-06-14T01:45:04;4.70;;;4.30;;
2934;SDS011;2462;51.456;7.248;2023-06-14T01:47:31;5.00;;;4.60;;
2934;SDS011;2462;51.456;7.248;2023-06-14T01:49:57;5.53;;;4.33;;
2934;SDS011;2462;51.456;7.248;2023-06-14T01:52:23;4.80;;;4.40;;
2934;SDS011;2462;51.456;7.248;2023-06-14T01:54:49;5.10;;;4.07;;
2934;SDS011;2462;51.456;7.248;2023-06-14T01:57:18;4.67;;;4.37;;
2934;SDS011;2462;51.456;7.248;2023-06-14T01:59:45;5.50;;;5.00;;
2934;SDS011;2462;51.456;7.248;2023-06-14T02:02:13;4.57;;;4.17;;
2934;SDS011;2462;51.456;7.248;2023-06-14T02:04:39;5.00;;;3.70;;
2934;SDS011;2462;51.456;7.248;2023-06-14T02:07:05;4.80;;;4.40;;
2934;SDS011;2462;51.456;7.248;2023-06-14T02:09:31;4.87;;;4.47;;
2934;SDS011;2462;51.456;7.248;2023-06-14T02:11:56;4.90;;;4.50;;
2934;SDS011;2462;51.456;7.248;2023-06-14T02:14:22;5.00;;;4.60;;
2934;SDS011;2462;51.456;7.248;2023-06-14T02:16:48;4.07;;;3.77;;
2934;SDS011;2462;51.456;7.248;2023-06-14T02:19:17;5.40;;;4.20;;
2934;SDS011;2462;51.456;7.248;2023-06-14T02:21:44;4.40;;;4.00;;
2934;SDS011;2462;51.456;7.248;2023-06-14T02:24:09;4.10;;;3.70;;
2934;SDS011;2462;51.456;7.248;2023-06-14T02:26:35;4.47;;;4.07;;
2934;SDS011;2462;51.456;7.248;2023-06-14T02:29:03;4.30;;;3.90;;
2934;SDS011;2462;51.456;7.248;2023-06-14T02:31:33;4.27;;;3.90;;
2934;SDS011;2462;51.456;7.248;2023-06-14T02:34:00;5.23;;;4.73;;
2934;SDS011;2462;51.456;7.248;2023-06-14T02:36:25;4.50;;;4.20;;
2934;SDS011;2462;51.456;7.248;2023-06-14T02:38:51;5.33;;;4.60;;
2934;SDS011;2462;51.456;7.248;2023-06-14T02:41:19;4.63;;;4.23;;
2934;SDS011;2462;51.456;7.248;2023-06-14T02:43:44;4.40;;;4.00;;
2934;SDS011;2462;51.456;7.248;2023-06-14T02:46:10;5.20;;;3.97;;
2934;SDS011;2462;51.456;7.248;2023-06-14T02:48:36;4.70;;;4.20;;
2934;SDS011;2462;51.456;7.248;2023-06-14T02:51:02;4.30;;;3.90;;
2934;SDS011;2462;51.456;7.248;2023-06-14T02:53:27;4.57;;;4.17;;
2934;SDS011;2462;51.456;7.248;2023-06-14T02:55:53;4.10;;;3.80;;
2934;SDS011;2462;51.456;7.248;2023-06-14T02:58:20;4.40;;;4.10;;
2934;SDS011;2462;51.456;7.248;2023-06-14T03:00:46;6.83;;;4.03;;
2934;SDS011;2462;51.456;7.248;2023-06-14T03:03:11;6.23;;;3.67;;
2934;SDS011;2462;51.456;7.248;2023-06-14T03:05:44;4.43;;;4.03;;
2934;SDS011;2462;51.456;7.248;2023-06-14T03:08:12;4.63;;;4.23;;
2934;SDS011;2462;51.456;7.248;2023-06-14T03:10:44;4.50;;;4.10;;
2934;SDS011;2462;51.456;7.248;2023-06-14T03:13:11;4.03;;;3.70;;
2934;SDS011;2462;51.456;7.248;2023-06-14T03:15:37;4.07;;;3.77;;
2934;SDS011;2462;51.456;7.248;2023-06-14T03:18:03;4.50;;;4.10;;
2934;SDS011;2462;51.456;7.248;2023-06-14T03:20:29;3.90;;;3.60;;
2934;SDS011;2462;51.456;7.248;2023-06-14T03:22:58;4.43;;;4.03;;
2934;SDS011;2462;51.456;7.248;2023-06-14T03:25:24;4.67;;;4.27;;
2934;SDS011;2462;51.456;7.248;2023-06-14T03:27:50;4.37;;;3.97;;
2934;SDS011;2462;51.456;7.248;2023-06-14T03:30:16;4.17;;;3.83;;
2934;SDS011;2462;51.456;7.248;2023-06-14T03:32:42;4.10;;;3.70;;
2934;SDS011;2462;51.456;7.248;2023-06-14T03:35:07;5.00;;;4.53;;
2934;SDS011;2462;51.456;7.248;2023-06-14T03:37:33;4.50;;;4.07;;
2934;SDS011;2462;51.456;7.248;2023-06-14T03:39:59;4.47;;;4.07;;
2934;SDS011;2462;51.456;7.248;2023-06-14T03:42:25;4.47;;;4.07;;
2934;SDS011;2462;51.456;7.248;2023-06-14T03:44:51;4.23;;;3.87;;
2934;SDS011;2462;51.456;7.248;2023-06-14T03:47:16;3.80;;;3.50;;
2934;SDS011;2462;51.456;7.248;2023-06-14T03:49:42;3.43;;;3.13;;
2934;SDS011;2462;51.456;7.248;2023-06-14T03:52:08;4.73;;;4.20;;
2934;SDS011;2462;51.456;7.248;2023-06-14T03:54:33;4.60;;;4.20;;
2934;SDS011;2462;51.456;7.248;2023-06-14T03:56:59;3.70;;;3.40;;
2934;SDS011;2462;51.456;7.248;2023-06-14T03:59:24;4.07;;;3.67;;
2934;SDS011;2462;51.456;7.248;2023-06-14T04:01:50;4.30;;;3.97;;
2934;SDS011;2462;51.456;7.248;2023-06-14T04:04:16;4.10;;;3.80;;
2934;SDS011;2462;51.456;7.248;2023-06-14T04:06:43;4.30;;;3.90;;
2934;SDS011;2462;51.456;7.248;2023-06-14T04:09:08;4.07;;;3.73;;
2934;SDS011;2462;51.456;7.248;2023-06-14T04:11:34;4.10;;;3.70;;
2934;SDS011;2462;51.456;7.248;2023-06-14T04:14:01;6.10;;;3.87;;
2934;SDS011;2462;51.456;7.248;2023-06-14T04:16:27;4.07;;;3.67;;
2934;SDS011;2462;51.456;7.248;2023-06-14T04:18:54;3.60;;;3.30;;
2934;SDS011;2462;51.456;7.248;2023-06-14T04:21:19;3.57;;;3.27;;
2934;SDS011;2462;51.456;7.248;2023-06-14T04:23:46;4.03;;;3.67;;
2934;SDS011;2462;51.456;7.248;2023-06-14T04:26:11;4.87;;;3.80;;
2934;SDS011;2462;51.456;7.248;2023-06-14T04:28:37;4.37;;;3.70;;
2934;SDS011;2462;51.456;7.248;2023-06-14T04:31:06;4.70;;;4.03;;
2934;SDS011;2462;51.456;7.248;2023-06-14T04:33:34;3.90;;;3.60;;
2934;SDS011;2462;51.456;7.248;2023-06-14T04:36:10;3.20;;;2.87;;
2934;SDS011;2462;51.456;7.248;2023-06-14T04:38:42;4.63;;;3.33;;
2934;SDS011;2462;51.456;7.248;2023-06-14T04:41:10;3.63;;;3.30;;
2934;SDS011;2462;51.456;7.248;2023-06-14T04:43:36;3.80;;;3.50;;
2934;SDS011;2462;51.456;7.248;2023-06-14T04:46:03;3.90;;;3.50;;
2934;SDS011;2462;51.456;7.248;2023-06-14T04:48:31;5.13;;;3.23;;
2934;SDS011;2462;51.456;7.248;2023-06-14T04:50:57;3.53;;;3.20;;
2934;SDS011;2462;51.456;7.248;2023-06-14T04:53:22;5.30;;;3.73;;
2934;SDS011;2462;51.456;7.248;2023-06-14T04:55:48;7.23;;;4.40;;
2934;SDS011;2462;51.456;7.248;2023-06-14T04:58:15;6.73;;;4.90;;
2934;SDS011;2462;51.456;7.248;2023-06-14T05:00:41;7.10;;;5.00;;
2934;SDS011;2462;51.456;7.248;2023-06-14T05:03:10;6.63;;;3.70;;
2934;SDS011;2462;51.456;7.248;2023-06-14T05:05:40;5.80;;;4.53;;
2934;SDS011;2462;51.456;7.248;2023-06-14T05:08:07;4.40;;;4.00;;
2934;SDS011;2462;51.456;7.248;2023-06-14T05:10:33;5.83;;;4.37;;
2934;SDS011;2462;51.456;7.248;2023-06-14T05:13:01;6.70;;;4.93;;
2934;SDS011;2462;51.456;7.248;2023-06-14T05:15:26;6.93;;;3.90;;
2934;SDS011;2462;51.456;7.248;2023-06-14T05:17:53;4.67;;;3.80;;
2934;SDS011;2462;51.456;7.248;2023-06-14T05:20:24;5.53;;;4.27;;
2934;SDS011;2462;51.456;7.248;2023-06-14T05:22:50;11.83;;;4.43;;
2934;SDS011;2462;51.456;7.248;2023-06-14T05:25:18;7.53;;;4.10;;
2934;SDS011;2462;51.456;7.248;2023-06-14T05:27:44;6.50;;;4.53;;
2934;SDS011;2462;51.456;7.248;2023-06-14T05:30:10;6.47;;;4.30;;
2934;SDS011;2462;51.456;7.248;2023-06-14T05:32:36;6.57;;;4.23;;
2934;SDS011;2462;51.456;7.248;2023-06-14T05:35:02;4.60;;;4.20;;
2934;SDS011;2462;51.456;7.248;2023-06-14T05:37:28;11.37;;;9.03;;
2934;SDS011;2462;51.456;7.248;2023-06-14T05:39:54;8.53;;;4.50;;
2934;SDS011;2462;51.456;7.248;2023-06-14T05:42:19;4.47;;;3.53;;
2934;SDS011;2462;51.456;7.248;2023-06-14T05:44:45;5.07;;;4.30;;
2934;SDS011;2462;51.456;7.248;2023-06-14T05:47:10;5.63;;;4.00;;
2934;SDS011;2462;51.456;7.248;2023-06-14T05:49:36;5.10;;;4.60;;
2934;SDS011;2462;51.456;7.248;2023-06-14T05:52:01;5.27;;;4.60;;
2934;SDS011;2462;51.456;7.248;2023-06-14T05:54:27;6.60;;;4.43;;
2934;SDS011;2462;51.456;7.248;2023-06-14T05:56:53;7.13;;;3.97;;
2934;SDS011;2462;51.456;7.248;2023-06-14T05:59:19;11.20;;;4.10;;
2934;SDS011;2462;51.456;7.248;2023-06-14T06:01:45;4.80;;;4.23;;
2934;SDS011;2462;51.456;7.248;2023-06-14T06:04:11;5.03;;;4.43;;
2934;SDS011;2462;51.456;7.248;2023-06-14T06:06:36;5.97;;;3.97;;
2934;SDS011;2462;51.456;7.248;2023-06-14T06:09:02;6.90;;;3.90;;
2934;SDS011;2462;51.456;7.248;2023-06-14T06:11:28;11.20;;;4.27;;
2934;SDS011;2462;51.456;7.248;2023-06-14T06:13:53;7.70;;;3.60;;
2934;SDS011;2462;51.456;7.248;2023-06-14T06:16:19;4.63;;;3.43;;
2934;SDS011;2462;51.456;7.248;2023-06-14T06:18:44;6.90;;;3.63;;
2934;SDS011;2462;51.456;7.248;2023-06-14T06:21:10;5.90;;;3.70;;
2934;SDS011;2462;51.456;7.248;2023-06-14T06:23:35;3.20;;;2.70;;
2934;SDS011;2462;51.456;7.248;2023-06-14T06:26:01;8.17;;;3.70;;
2934;SDS011;2462;51.456;7.248;2023-06-14T06:28:27;4.67;;;3.57;;
2934;SDS011;2462;51.456;7.248;2023-06-14T06:30:52;5.50;;;3.70;;
2934;SDS011;2462;51.456;7.248;2023-06-14T06:33:18;8.70;;;3.90;;
2934;SDS011;2462;51.456;7.248;2023-06-14T06:35:44;5.03;;;3.00;;
2934;SDS011;2462;51.456;7.248;2023-06-14T06:38:10;5.83;;;3.43;;
2934;SDS011;2462;51.456;7.248;2023-06-14T06:40:36;8.47;;;3.37;;
2934;SDS011;2462;51.456;7.248;2023-06-14T06:43:02;4.30;;;2.60;;
2934;SDS011;2462;51.456;7.248;2023-06-14T06:45:28;3.07;;;2.63;;
2934;SDS011;2462;51.456;7.248;2023-06-14T06:47:53;3.27;;;2.87;;
2934;SDS011;2462;51.456;7.248;2023-06-14T06:50:20;6.60;;;2.90;;
2934;SDS011;2462;51.456;7.248;2023-06-14T06:52:48;6.70;;;2.83;;
2934;SDS011;2462;51.456;7.248;2023-06-14T06:55:13;5.57;;;3.20;;
2934;SDS011;2462;51.456;7.248;2023-06-14T06:57:39;6.67;;;3.33;;
2934;SDS011;2462;51.456;7.248;2023-06-14T07:00:05;4.80;;;3.60;;
2934;SDS011;2462;51.456;7.248;2023-06-14T07:02:34;6.87;;;3.33;;
2934;SDS011;2462;51.456;7.248;2023-06-14T07:05:00;3.97;;;2.97;;
2934;SDS011;2462;51.456;7.248;2023-06-14T07:07:25;3.40;;;3.10;;
2934;SDS011;2462;51.456;7.248;2023-06-14T07:09:51;4.73;;;3.13;;
2934;SDS011;2462;51.456;7.248;2023-06-14T07:12:17;3.83;;;2.77;;
2934;SDS011;2462;51.456;7.248;2023-06-14T07:14:43;3.30;;;2.90;;
2934;SDS011;2462;51.456;7.248;2023-06-14T07:17:08;4.93;;;3.27;;
2934;SDS011;2462;51.456;7.248;2023-06-14T07:19:34;7.83;;;2.70;;
2934;SDS011;2462;51.456;7.248;2023-06-14T07:22:00;2.40;;;2.20;;
2934;SDS011;2462;51.456;7.248;2023-06-14T07:24:25;3.57;;;2.80;;
2934;SDS011;2462;51.456;7.248;2023-06-14T07:26:53;2.70;;;2.50;;
2934;SDS011;2462;51.456;7.248;2023-06-14T07:29:20;10.67;;;3.07;;
2934;SDS011;2462;51.456;7.248;2023-06-14T07:31:46;4.50;;;2.50;;
2934;SDS011;2462;51.456;7.248;2023-06-14T07:34:11;2.77;;;2.27;;
2934;SDS011;2462;51.456;7.248;2023-06-14T07:36:37;4.13;;;2.20;;
2934;SDS011;2462;51.456;7.248;2023-06-14T07:39:03;2.83;;;2.53;;
2934;SDS011;2462;51.456;7.248;2023-06-14T07:41:30;3.20;;;2.23;;
2934;SDS011;2462;51.456;7.248;2023-06-14T07:43:56;4.88;;;2.05;;
2934;SDS011;2462;51.456;7.248;2023-06-14T07:46:22;3.23;;;2.63;;
2934;SDS011;2462;51.456;7.248;2023-06-14T07:48:47;3.70;;;2.50;;
2934;SDS011;2462;51.456;7.248;2023-06-14T07:51:13;4.33;;;2.10;;
2934;SDS011;2462;51.456;7.248;2023-06-14T07:53:38;4.20;;;2.10;;
2934;SDS011;2462;51.456;7.248;2023-06-14T07:56:05;3.67;;;2.03;;
2934;SDS011;2462;51.456;7.248;2023-06-14T07:58:31;4.53;;;2.60;;
2934;SDS011;2462;51.456;7.248;2023-06-14T08:00:57;5.60;;;2.30;;
2934;SDS011;2462;51.456;7.248;2023-06-14T08:03:22;3.37;;;2.40;;
2934;SDS011;2462;51.456;7.248;2023-06-14T08:05:48;6.53;;;5.67;;
2934;SDS011;2462;51.456;7.248;2023-06-14T08:08:14;3.23;;;2.37;;
2934;SDS011;2462;51.456;7.248;2023-06-14T08:10:40;5.13;;;2.77;;
2934;SDS011;2462;51.456;7.248;2023-06-14T08:13:06;9.43;;;2.73;;
2934;SDS011;2462;51.456;7.248;2023-06-14T08:15:31;2.73;;;2.50;;
2934;SDS011;2462;51.456;7.248;2023-06-14T08:17:57;2.43;;;2.23;;
2934;SDS011;2462;51.456;7.248;2023-06-14T08:20:24;4.07;;;2.93;;
2934;SDS011;2462;51.456;7.248;2023-06-14T08:22:50;2.50;;;1.83;;
2934;SDS011;2462;51.456;7.248;2023-06-14T08:25:20;2.60;;;2.27;;
2934;SDS011;2462;51.456;7.248;2023-06-14T08:27:45;2.53;;;2.33;;
2934;SDS011;2462;51.456;7.248;2023-06-14T08:30:11;3.60;;;2.30;;
2934;SDS011;2462;51.456;7.248;2023-06-14T08:32:37;6.33;;;2.60;;
2934;SDS011;2462;51.456;7.248;2023-06-14T08:35:03;3.67;;;2.40;;
2934;SDS011;2462;51.456;7.248;2023-06-14T08:37:31;2.80;;;2.10;;
2934;SDS011;2462;51.456;7.248;2023-06-14T08:39:58;2.97;;;1.93;;
2934;SDS011;2462;51.456;7.248;2023-06-14T08:42:24;4.20;;;2.23;;
2934;SDS011;2462;51.456;7.248;2023-06-14T08:44:50;3.90;;;2.20;;
2934;SDS011;2462;51.456;7.248;2023-06-14T08:47:15;6.90;;;2.17;;
2934;SDS011;2462;51.456;7.248;2023-06-14T08:49:44;4.43;;;2.13;;
2934;SDS011;2462;51.456;7.248;2023-06-14T08:52:13;2.67;;;1.40;;
2934;SDS011;2462;51.456;7.248;2023-06-14T08:54:44;9.47;;;2.90;;
2934;SDS011;2462;51.456;7.248;2023-06-14T08:57:13;4.60;;;2.40;;
2934;SDS011;2462;51.456;7.248;2023-06-14T08:59:40;5.40;;;1.93;;
2934;SDS011;2462;51.456;7.248;2023-06-14T09:02:11;4.60;;;1.83;;
2934;SDS011;2462;51.456;7.248;2023-06-14T09:04:39;5.03;;;1.98;;
2934;SDS011;2462;51.456;7.248;2023-06-14T09:07:05;1.73;;;1.63;;
2934;SDS011;2462;51.456;7.248;2023-06-14T09:09:31;4.57;;;2.50;;
2934;SDS011;2462;51.456;7.248;2023-06-14T09:11:57;4.70;;;2.07;;
2934;SDS011;2462;51.456;7.248;2023-06-14T09:14:25;2.33;;;2.00;;
2934;SDS011;2462;51.456;7.248;2023-06-14T09:16:54;4.20;;;1.47;;
2934;SDS011;2462;51.456;7.248;2023-06-14T09:19:23;1.80;;;1.70;;
2934;SDS011;2462;51.456;7.248;2023-06-14T09:21:49;6.00;;;1.43;;
2934;SDS011;2462;51.456;7.248;2023-06-14T09:24:17;4.40;;;1.70;;
2934;SDS011;2462;51.456;7.248;2023-06-14T09:26:46;2.00;;;1.80;;
2934;SDS011;2462;51.456;7.248;2023-06-14T09:29:12;1.90;;;1.70;;
2934;SDS011;2462;51.456;7.248;2023-06-14T09:31:38;5.80;;;1.90;;
2934;SDS011;2462;51.456;7.248;2023-06-14T09:34:03;2.00;;;1.77;;
2934;SDS011;2462;51.456;7.248;2023-06-14T09:36:30;7.70;;;2.10;;
2934;SDS011;2462;51.456;7.248;2023-06-14T09:39:03;2.67;;;1.47;;
2934;SDS011;2462;51.456;7.248;2023-06-14T09:41:33;2.10;;;1.57;;
2934;SDS011;2462;51.456;7.248;2023-06-14T09:44:04;2.70;;;1.30;;
2934;SDS011;2462;51.456;7.248;2023-06-14T09:46:32;3.17;;;2.07;;
2934;SDS011;2462;51.456;7.248;2023-06-14T09:48:58;1.40;;;1.23;;
2934;SDS011;2462;51.456;7.248;2023-06-14T09:51:24;1.60;;;1.40;;
2934;SDS011;2462;51.456;7.248;2023-06-14T09:53:51;3.90;;;1.33;;
2934;SDS011;2462;51.456;7.248;2023-06-14T09:56:20;4.20;;;1.57;;
2934;SDS011;2462;51.456;7.248;2023-06-14T09:58:53;2.10;;;1.53;;
2934;SDS011;2462;51.456;7.248;2023-06-14T10:01:20;3.77;;;1.40;;
2934;SDS011;2462;51.456;7.248;2023-06-14T10:03:48;5.37;;;1.90;;
2934;SDS011;2462;51.456;7.248;2023-06-14T10:06:15;3.73;;;1.83;;
2934;SDS011;2462;51.456;7.248;2023-06-14T10:08:42;4.03;;;1.83;;
2934;SDS011;2462;51.456;7.248;2023-06-14T10:11:09;4.13;;;1.90;;
2934;SDS011;2462;51.456;7.248;2023-06-14T10:13:37;4.60;;;1.87;;
2934;SDS011;2462;51.456;7.248;2023-06-14T10:16:10;2.10;;;1.70;;
2934;SDS011;2462;51.456;7.248;2023-06-14T10:21:58;5.10;;;1.83;;
2934;SDS011;2462;51.456;7.248;2023-06-14T10:24:32;2.70;;;1.87;;
2934;SDS011;2462;51.456;7.248;2023-06-14T10:27:04;3.30;;;2.23;;
2934;SDS011;2462;51.456;7.248;2023-06-14T10:29:35;1.70;;;1.20;;
2934;SDS011;2462;51.456;7.248;2023-06-14T10:32:26;2.23;;;1.73;;
2934;SDS011;2462;51.456;7.248;2023-06-14T10:34:56;6.80;;;2.50;;
2934;SDS011;2462;51.456;7.248;2023-06-14T10:37:23;3.93;;;2.27;;
2934;SDS011;2462;51.456;7.248;2023-06-14T10:39:49;4.18;;;1.80;;
2934;SDS011;2462;51.456;7.248;2023-06-14T10:42:15;3.40;;;1.50;;
2934;SDS011;2462;51.456;7.248;2023-06-14T10:44:50;2.73;;;1.53;;
2934;SDS011;2462;51.456;7.248;2023-06-14T10:47:21;2.10;;;1.80;;
2934;SDS011;2462;51.456;7.248;2023-06-14T10:49:52;2.80;;;1.83;;
2934;SDS011;2462;51.456;7.248;2023-06-14T10:52:26;2.47;;;2.13;;
2934;SDS011;2462;51.456;7.248;2023-06-14T10:57:29;2.83;;;1.60;;
2934;SDS011;2462;51.456;7.248;2023-06-14T10:59:56;5.07;;;1.63;;
2934;SDS011;2462;51.456;7.248;2023-06-14T11:05:23;3.73;;;1.50;;
2934;SDS011;2462;51.456;7.248;2023-06-14T11:08:15;3.10;;;1.40;;
2934;SDS011;2462;51.456;7.248;2023-06-14T11:10:54;4.00;;;1.50;;
2934;SDS011;2462;51.456;7.248;2023-06-14T11:13:24;3.30;;;2.00;;
2934;SDS011;2462;51.456;7.248;2023-06-14T11:15:50;1.60;;;1.33;;
2934;SDS011;2462;51.456;7.248;2023-06-14T11:18:18;2.10;;;1.23;;
2934;SDS011;2462;51.456;7.248;2023-06-14T11:20:45;3.07;;;1.60;;
2934;SDS011;2462;51.456;7.248;2023-06-14T11:23:11;2.83;;;1.90;;
2934;SDS011;2462;51.456;7.248;2023-06-14T11:25:37;2.10;;;1.33;;
2934;SDS011;2462;51.456;7.248;2023-06-14T11:28:02;4.50;;;1.50;;
2934;SDS011;2462;51.456;7.248;2023-06-14T11:30:28;4.03;;;1.70;;
2934;SDS011;2462;51.456;7.248;2023-06-14T11:32:55;3.00;;;1.70;;
2934;SDS011;2462;51.456;7.248;2023-06-14T11:35:24;2.50;;;1.70;;
2934;SDS011;2462;51.456;7.248;2023-06-14T11:37:54;5.23;;;1.90;;
2934;SDS011;2462;51.456;7.248;2023-06-14T11:40:23;3.53;;;1.80;;
2934;SDS011;2462;51.456;7.248;2023-06-14T11:42:49;4.70;;;1.83;;
2934;SDS011;2462;51.456;7.248;2023-06-14T11:45:15;2.73;;;1.90;;
2934;SDS011;2462;51.456;7.248;2023-06-14T11:47:40;2.37;;;2.10;;
2934;SDS011;2462;51.456;7.248;2023-06-14T11:50:07;2.67;;;1.80;;
2934;SDS011;2462;51.456;7.248;2023-06-14T11:52:34;2.47;;;2.00;;
2934;SDS011;2462;51.456;7.248;2023-06-14T11:55:01;2.80;;;2.33;;
2934;SDS011;2462;51.456;7.248;2023-06-14T11:57:30;3.45;;;1.80;;
2934;SDS011;2462;51.456;7.248;2023-06-14T11:59:58;4.97;;;2.77;;
2934;SDS011;2462;51.456;7.248;2023-06-14T12:02:24;4.25;;;1.98;;
2934;SDS011;2462;51.456;7.248;2023-06-14T12:04:50;4.55;;;2.40;;
2934;SDS011;2462;51.456;7.248;2023-06-14T12:07:16;4.60;;;2.80;;
2934;SDS011;2462;51.456;7.248;2023-06-14T12:12:24;2.23;;;2.00;;
2934;SDS011;2462;51.456;7.248;2023-06-14T12:14:50;2.27;;;2.07;;
2934;SDS011;2462;51.456;7.248;2023-06-14T12:17:17;3.23;;;2.60;;
2934;SDS011;2462;51.456;7.248;2023-06-14T12:19:43;8.83;;;2.63;;
2934;SDS011;2462;51.456;7.248;2023-06-14T12:22:10;6.50;;;2.77;;
2934;SDS011;2462;51.456;7.248;2023-06-14T12:24:36;3.43;;;3.13;;
2934;SDS011;2462;51.456;7.248;2023-06-14T12:27:02;3.10;;;2.80;;
2934;SDS011;2462;51.456;7.248;2023-06-14T12:29:29;5.93;;;2.10;;
2934;SDS011;2462;51.456;7.248;2023-06-14T12:31:55;2.20;;;1.77;;
2934;SDS011;2462;51.456;7.248;2023-06-14T12:34:22;3.53;;;2.40;;
2934;SDS011;2462;51.456;7.248;2023-06-14T12:36:49;5.63;;;2.13;;
2934;SDS011;2462;51.456;7.248;2023-06-14T12:39:15;49.07;;;6.40;;
2934;SDS011;2462;51.456;7.248;2023-06-14T12:41:41;14.20;;;3.87;;
2934;SDS011;2462;51.456;7.248;2023-06-14T12:44:07;8.97;;;2.97;;
2934;SDS011;2462;51.456;7.248;2023-06-14T12:46:33;3.80;;;2.43;;
2934;SDS011;2462;51.456;7.248;2023-06-14T12:48:59;5.57;;;2.20;;
2934;SDS011;2462;51.456;7.248;2023-06-14T12:51:25;14.00;;;2.23;;
2934;SDS011;2462;51.456;7.248;2023-06-14T12:53:51;4.10;;;2.30;;
2934;SDS011;2462;51.456;7.248;2023-06-14T12:56:17;5.77;;;2.10;;
2934;SDS011;2462;51.456;7.248;2023-06-14T12:58:42;2.33;;;1.93;;
2934;SDS011;2462;51.456;7.248;2023-06-14T13:01:08;2.87;;;2.57;;
2934;SDS011;2462;51.456;7.248;2023-06-14T13:03:34;2.77;;;2.00;;
2934;SDS011;2462;51.456;7.248;2023-06-14T13:06:00;2.63;;;2.10;;
2934;SDS011;2462;51.456;7.248;2023-06-14T13:08:26;6.23;;;2.53;;
2934;SDS011;2462;51.456;7.248;2023-06-14T13:10:53;5.97;;;2.13;;
2934;SDS011;2462;51.456;7.248;2023-06-14T13:13:19;2.30;;;2.10;;
2934;SDS011;2462;51.456;7.248;2023-06-14T13:15:44;6.30;;;2.50;;
2934;SDS011;2462;51.456;7.248;2023-06-14T13:18:11;2.67;;;2.07;;
2934;SDS011;2462;51.456;7.248;2023-06-14T13:20:38;3.33;;;2.20;;
2934;SDS011;2462;51.456;7.248;2023-06-14T13:23:04;4.30;;;2.47;;
2934;SDS011;2462;51.456;7.248;2023-06-14T13:25:32;4.57;;;2.23;;
2934;SDS011;2462;51.456;7.248;2023-06-14T13:27:59;3.57;;;2.23;;
2934;SDS011;2462;51.456;7.248;2023-06-14T13:30:24;4.20;;;2.47;;
2934;SDS011;2462;51.456;7.248;2023-06-14T13:32:50;4.20;;;2.37;;
2934;SDS011;2462;51.456;7.248;2023-06-14T13:35:17;2.50;;;2.30;;
2934;SDS011;2462;51.456;7.248;2023-06-14T13:37:43;4.23;;;2.00;;
2934;SDS011;2462;51.456;7.248;2023-06-14T13:40:09;5.00;;;2.43;;
2934;SDS011;2462;51.456;7.248;2023-06-14T13:42:35;4.17;;;3.07;;
2934;SDS011;2462;51.456;7.248;2023-06-14T13:45:01;2.30;;;2.10;;
2934;SDS011;2462;51.456;7.248;2023-06-14T13:47:28;3.13;;;2.83;;
2934;SDS011;2462;51.456;7.248;2023-06-14T13:49:53;3.53;;;2.60;;
2934;SDS011;2462;51.456;7.248;2023-06-14T13:52:19;5.57;;;2.27;;
2934;SDS011;2462;51.456;7.248;2023-06-14T13:54:45;5.23;;;2.70;;
2934;SDS011;2462;51.456;7.248;2023-06-14T13:57:11;5.70;;;2.90;;
2934;SDS011;2462;51.456;7.248;2023-06-14T13:59:39;3.47;;;2.27;;
2934;SDS011;2462;51.456;7.248;2023-06-14T14:02:05;5.80;;;2.38;;
2934;SDS011;2462;51.456;7.248;2023-06-14T14:04:31;3.07;;;2.30;;
2934;SDS011;2462;51.456;7.248;2023-06-14T14:06:57;2.90;;;2.63;;
2934;SDS011;2462;51.456;7.248;2023-06-14T14:09:23;4.17;;;2.57;;
2934;SDS011;2462;51.456;7.248;2023-06-14T14:11:48;3.07;;;2.80;;
2934;SDS011;2462;51.456;7.248;2023-06-14T14:14:14;3.73;;;2.50;;
2934;SDS011;2462;51.456;7.248;2023-06-14T14:16:40;3.57;;;2.53;;
2934;SDS011;2462;51.456;7.248;2023-06-14T14:19:06;3.53;;;2.60;;
2934;SDS011;2462;51.456;7.248;2023-06-14T14:21:32;3.00;;;2.50;;
2934;SDS011;2462;51.456;7.248;2023-06-14T14:23:58;3.20;;;2.40;;
2934;SDS011;2462;51.456;7.248;2023-06-14T14:26:23;2.93;;;2.67;;
2934;SDS011;2462;51.456;7.248;2023-06-14T14:28:50;5.63;;;2.83;;
2934;SDS011;2462;51.456;7.248;2023-06-14T14:31:16;3.17;;;2.87;;
2934;SDS011;2462;51.456;7.248;2023-06-14T14:33:41;2.57;;;2.07;;
2934;SDS011;2462;51.456;7.248;2023-06-14T14:36:07;2.87;;;2.60;;
2934;SDS011;2462;51.456;7.248;2023-06-14T14:38:33;6.40;;;2.80;;
2934;SDS011;2462;51.456;7.248;2023-06-14T14:41:00;4.73;;;2.80;;
2934;SDS011;2462;51.456;7.248;2023-06-14T14:43:25;4.07;;;2.73;;
2934;SDS011;2462;51.456;7.248;2023-06-14T14:45:51;3.77;;;2.57;;
2934;SDS011;2462;51.456;7.248;2023-06-14T14:48:17;7.83;;;2.63;;
2934;SDS011;2462;51.456;7.248;2023-06-14T14:50:43;2.90;;;2.70;;
2934;SDS011;2462;51.456;7.248;2023-06-14T14:53:08;3.60;;;2.70;;
2934;SDS011;2462;51.456;7.248;2023-06-14T14:55:34;3.07;;;2.63;;
2934;SDS011;2462;51.456;7.248;2023-06-14T14:58:02;3.87;;;2.73;;
2934;SDS011;2462;51.456;7.248;2023-06-14T15:00:28;4.13;;;2.70;;
2934;SDS011;2462;51.456;7.248;2023-06-14T15:02:54;5.90;;;3.23;;
2934;SDS011;2462;51.456;7.248;2023-06-14T15:05:19;2.43;;;2.23;;
2934;SDS011;2462;51.456;7.248;2023-06-14T15:07:45;4.87;;;2.57;;
2934;SDS011;2462;51.456;7.248;2023-06-14T15:10:10;4.07;;;3.47;;
2934;SDS011;2462;51.456;7.248;2023-06-14T15:12:36;3.83;;;2.80;;
2934;SDS011;2462;51.456;7.248;2023-06-14T15:15:02;2.50;;;2.30;;
2934;SDS011;2462;51.456;7.248;2023-06-14T15:17:28;2.90;;;2.43;;
2934;SDS011;2462;51.456;7.248;2023-06-14T15:19:54;2.63;;;2.33;;
2934;SDS011;2462;51.456;7.248;2023-06-14T15:22:20;2.60;;;2.40;;
2934;SDS011;2462;51.456;7.248;2023-06-14T15:24:46;4.13;;;2.90;;
2934;SDS011;2462;51.456;7.248;2023-06-14T15:27:11;2.70;;;2.50;;
2934;SDS011;2462;51.456;7.248;2023-06-14T15:29:38;2.83;;;2.50;;